Birnamwood, Wisconsin
Current Conditions -  °F | °C
As of 4:15 AM on Tuesday 27 Jan 2015 (Local Time) from KAIG Reporting Station
Haze Haze  
Wind Chill: 13°   Ceiling: 300
Heat Index: 20°   Visibility: 4mi
Dew Point: 20°   Wind: 6mph
Humidity: 99%   Direction: 110°ESE
Pressure: 30.03"   Gusts: NA
Location:  44.93°N, 89.21°W
Report Text: KAIG 271015Z AUTO 11005KT 4SM BR OVC003 M06/M07 A3003 RMK AO2 T10651066
Loading
Personal Weather Stations






























Interactive Weather Map New forecast layout! Learn more

10-Day Weather Forecast

Advertisements
Track Severe Weather on mobile